Adel, Iowa
Current Conditions -  °F | °C
As of 1:15 PM on Monday 20 Oct 2014 (Local Time) from KPRO Reporting Station
Clear Clear  
Wind Chill: 20°   Ceiling: Unl
Heat Index: 20°   Visibility: 10mi
Dew Point:   Wind: 9mph
Humidity: 34%   Direction: 330°NNW
Pressure: 30.03"   Gusts: 17mph
Location:  41.61°N, 94.02°W
Report Text: KPRO 201815Z AUTO 33008G15KT 10SM CLR 20/04 A3003 RMK AO2 T02040042
Loading
Personal Weather Stations






























Interactive Weather Map
Tropical Storm Tracking
New forecast layout! Learn more

10-Day Weather Forecast

Advertisements
Track Severe Weather on mobile